createdAt,value
2023-05-14T00:00:16.633Z,10.719907
2023-05-14T00:05:17.402Z,10.587963
2023-05-14T00:10:16.835Z,10.511574
2023-05-14T00:15:16.708Z,10.430556
2023-05-14T00:20:16.723Z,10.435556
2023-05-14T00:25:16.786Z,10.506944
2023-05-14T00:30:16.668Z,10.553241
2023-05-14T00:35:16.817Z,10.569444
2023-05-14T00:40:16.769Z,10.500000
2023-05-14T00:45:16.882Z,10.465278
2023-05-14T00:50:16.664Z,10.444444
2023-05-14T00:55:16.917Z,10.428241
2023-05-14T01:00:16.800Z,10.407407
2023-05-14T01:05:16.838Z,10.391204
2023-05-14T01:10:17.211Z,10.312500
2023-05-14T01:15:17.133Z,10.245370
2023-05-14T01:20:16.880Z,10.236111
2023-05-14T01:25:17.210Z,10.277778
2023-05-14T01:30:17.093Z,10.217593
2023-05-14T01:35:16.683Z,10.104167
2023-05-14T01:40:17.199Z,10.023148
2023-05-14T01:45:16.759Z,9.953704
2023-05-14T01:50:16.824Z,9.884259
2023-05-14T01:55:16.749Z,9.789352
2023-05-14T02:00:16.728Z,9.729167
2023-05-14T02:05:16.764Z,9.551111
2023-05-14T02:10:16.699Z,9.312500
2023-05-14T02:15:16.786Z,9.152778
2023-05-14T02:20:16.678Z,9.037037
2023-05-14T02:25:17.011Z,8.944444
2023-05-14T02:30:17.218Z,8.657407
2023-05-14T02:35:16.626Z,8.548611
2023-05-14T02:40:16.752Z,8.671296
2023-05-14T02:45:16.882Z,8.634259
2023-05-14T02:50:16.930Z,8.432870
2023-05-14T02:55:17.089Z,8.435185
2023-05-14T03:00:16.661Z,8.402778
2023-05-14T03:05:16.932Z,8.444444
2023-05-14T03:10:16.799Z,8.539352
2023-05-14T03:15:16.978Z,8.666667
2023-05-14T03:20:16.829Z,8.583333
2023-05-14T03:25:16.825Z,8.314815
2023-05-14T03:30:16.873Z,8.291667
2023-05-14T03:35:17.222Z,8.268519
2023-05-14T03:40:16.656Z,8.081019
2023-05-14T03:45:16.682Z,8.002315
2023-05-14T03:50:16.674Z,7.976852
2023-05-14T03:55:16.710Z,8.066667
2023-05-14T04:00:16.624Z,8.055556
2023-05-14T04:05:16.619Z,7.870370
2023-05-14T04:10:16.764Z,7.743056
2023-05-14T04:15:16.592Z,7.997685
2023-05-14T04:20:16.979Z,8.069444
2023-05-14T04:25:17.976Z,8.317130
2023-05-14T04:30:17.068Z,8.557870
2023-05-14T04:35:16.899Z,8.712963
2023-05-14T04:40:16.894Z,8.666667
2023-05-14T04:45:16.610Z,8.754630
2023-05-14T04:50:16.697Z,8.990741
2023-05-14T04:55:17.011Z,9.236111
2023-05-14T05:00:16.574Z,9.472222
2023-05-14T05:05:16.637Z,9.791667
2023-05-14T05:10:16.687Z,9.993056
2023-05-14T05:15:16.946Z,10.293333
2023-05-14T05:20:16.594Z,10.631944
2023-05-14T05:25:16.772Z,10.939815
2023-05-14T05:30:16.586Z,11.064815
2023-05-14T05:35:16.718Z,11.245370
2023-05-14T05:40:16.772Z,11.643519
2023-05-14T05:45:16.554Z,11.921296
2023-05-14T05:50:18.411Z,12.048611
2023-05-14T05:55:16.627Z,12.254630
2023-05-14T06:00:16.757Z,12.541667
2023-05-14T06:05:16.908Z,12.631944
2023-05-14T06:10:16.594Z,12.907407
2023-05-14T06:15:16.660Z,13.166667
2023-05-14T06:20:16.864Z,13.305556
2023-05-14T06:25:16.787Z,13.634259
2023-05-14T06:30:16.917Z,13.895556
2023-05-14T06:35:17.092Z,14.101852
2023-05-14T06:40:16.733Z,14.326389
2023-05-14T06:45:16.758Z,14.655556
2023-05-14T06:50:16.982Z,14.962963
2023-05-14T06:55:16.620Z,15.354167
2023-05-14T07:00:16.851Z,15.428241
2023-05-14T07:05:16.851Z,15.435185
2023-05-14T07:10:16.968Z,15.493056
2023-05-14T07:15:16.936Z,15.884259
2023-05-14T07:20:16.702Z,16.057870
2023-05-14T07:25:17.011Z,16.037037
2023-05-14T07:30:16.581Z,16.303241
2023-05-14T07:35:17.089Z,16.250000
2023-05-14T07:40:16.912Z,16.506944
2023-05-14T07:45:16.714Z,16.949074
2023-05-14T07:50:16.706Z,16.956019
2023-05-14T07:55:16.835Z,17.081019
2023-05-14T08:00:16.493Z,17.371111
2023-05-14T08:05:16.651Z,17.240741
2023-05-14T08:10:16.716Z,17.469907
2023-05-14T08:15:16.510Z,17.738426
2023-05-14T08:20:16.771Z,17.671111
2023-05-14T08:25:17.051Z,17.337963
2023-05-14T08:30:16.483Z,17.465278
2023-05-14T08:35:16.677Z,17.821759
2023-05-14T08:40:16.619Z,17.581019
2023-05-14T08:45:16.509Z,17.689815
2023-05-14T08:50:16.908Z,17.872685
2023-05-14T08:55:16.717Z,17.027778
2023-05-14T09:00:17.106Z,16.293981
2023-05-14T09:05:16.602Z,16.365741
2023-05-14T09:10:16.831Z,16.388889
2023-05-14T09:15:16.649Z,16.215278
2023-05-14T09:20:16.587Z,16.275463
2023-05-14T09:25:17.130Z,16.296296
2023-05-14T09:30:16.544Z,16.082222
2023-05-14T09:35:16.952Z,15.803241
2023-05-14T09:40:16.671Z,15.660000
2023-05-14T09:45:16.568Z,15.423611
2023-05-14T09:50:16.989Z,15.064815
2023-05-14T09:55:16.672Z,14.680556
2023-05-14T10:00:16.502Z,14.178241
2023-05-14T10:05:16.680Z,13.840278
2023-05-14T10:10:16.685Z,13.831019
2023-05-14T10:15:16.651Z,13.925926
2023-05-14T10:20:16.567Z,14.034722
2023-05-14T10:25:17.174Z,13.951389
2023-05-14T10:30:16.492Z,13.754630
2023-05-14T10:35:16.795Z,13.777778
2023-05-14T10:40:16.765Z,13.958333
2023-05-14T10:45:16.519Z,14.180556
2023-05-14T10:50:16.684Z,14.400463
2023-05-14T10:55:16.569Z,14.664352
2023-05-14T11:00:16.542Z,14.881944
2023-05-14T11:05:16.648Z,15.108796
2023-05-14T11:10:16.594Z,15.342593
2023-05-14T11:15:16.615Z,15.675926
2023-05-14T11:20:16.443Z,15.969907
2023-05-14T11:25:16.896Z,16.240741
2023-05-14T11:30:16.750Z,16.476852
2023-05-14T11:35:16.602Z,16.726852
2023-05-14T11:40:16.952Z,17.296296
2023-05-14T11:45:16.623Z,17.571759
2023-05-14T11:50:17.353Z,17.763889
2023-05-14T11:55:16.888Z,18.129630
2023-05-14T12:00:16.504Z,18.594907
2023-05-14T12:05:16.753Z,18.851852
2023-05-14T12:10:16.741Z,18.328704
2023-05-14T12:15:16.832Z,18.032407
2023-05-14T12:20:16.994Z,18.243056
2023-05-14T12:25:16.953Z,17.993056
2023-05-14T12:30:21.613Z,18.314815
2023-05-14T12:35:16.788Z,18.740741
2023-05-14T12:40:16.675Z,19.162037
2023-05-14T12:45:16.452Z,18.736111
2023-05-14T12:50:16.621Z,18.456019
2023-05-14T12:55:16.513Z,18.303241
2023-05-14T13:00:16.615Z,18.189815
2023-05-14T13:05:16.421Z,18.077778
2023-05-14T13:10:16.669Z,17.777778
2023-05-14T13:15:16.427Z,17.631944
2023-05-14T13:20:16.513Z,17.717593
2023-05-14T13:25:17.031Z,17.824074
2023-05-14T13:30:16.802Z,18.212963
2023-05-14T13:35:16.592Z,18.233796
2023-05-14T13:40:16.646Z,18.217593
2023-05-14T13:45:16.698Z,18.111111
2023-05-14T13:50:16.768Z,18.203704
2023-05-14T13:55:16.521Z,18.601852
2023-05-14T14:00:16.426Z,18.766204
2023-05-14T14:05:16.479Z,18.588889
2023-05-14T14:10:16.539Z,18.398148
2023-05-14T14:15:16.578Z,18.141204
2023-05-14T14:20:16.451Z,18.108796
2023-05-14T14:25:16.758Z,18.256944
2023-05-14T14:30:16.364Z,18.314815
2023-05-14T14:35:16.638Z,18.361111
2023-05-14T14:40:16.466Z,18.289352
2023-05-14T14:45:16.502Z,18.150463
2023-05-14T14:50:16.484Z,17.902778
2023-05-14T14:55:16.861Z,17.840278
2023-05-14T15:00:16.386Z,17.800926
2023-05-14T15:05:16.572Z,17.840278
2023-05-14T15:10:16.711Z,17.858796
2023-05-14T15:15:16.614Z,17.884259
2023-05-14T15:20:16.760Z,17.796296
2023-05-14T15:25:16.879Z,17.777778
2023-05-14T15:30:16.806Z,17.738426
2023-05-14T15:35:16.383Z,17.363426
2023-05-14T15:40:17.038Z,16.495370
2023-05-14T15:45:16.538Z,15.937500
2023-05-14T15:50:16.599Z,15.733796
2023-05-14T15:55:16.751Z,15.520833
2023-05-14T16:00:16.432Z,15.206019
2023-05-14T16:05:16.384Z,14.898148
2023-05-14T16:10:16.389Z,14.740741
2023-05-14T16:15:16.695Z,14.946759
2023-05-14T16:20:16.409Z,14.750000
2023-05-14T16:25:16.449Z,14.425926
2023-05-14T16:30:16.389Z,13.990741
2023-05-14T16:35:16.661Z,13.633333
2023-05-14T16:40:16.503Z,13.458333
2023-05-14T16:45:16.322Z,13.437500
2023-05-14T16:50:16.716Z,13.391204
2023-05-14T16:55:16.731Z,13.319444
2023-05-14T17:00:16.286Z,13.261574
2023-05-14T17:05:16.487Z,13.273148
2023-05-14T17:10:16.449Z,13.354167
2023-05-14T17:15:16.372Z,13.375000
2023-05-14T17:20:17.143Z,13.231481
2023-05-14T17:25:16.621Z,13.171296
2023-05-14T17:30:16.599Z,13.256944
2023-05-14T17:35:16.321Z,13.275463
2023-05-14T17:40:16.544Z,13.289352
2023-05-14T17:45:16.704Z,13.164352
2023-05-14T17:50:16.520Z,13.180556
2023-05-14T17:55:16.420Z,13.199074
2023-05-14T18:00:16.266Z,13.171296
2023-05-14T18:05:18.009Z,13.178241
2023-05-14T18:10:16.497Z,13.092593
2023-05-14T18:15:16.492Z,12.872685
2023-05-14T18:20:16.509Z,12.618056
2023-05-14T18:25:16.869Z,12.435185
2023-05-14T18:30:16.617Z,12.250000
2023-05-14T18:35:16.402Z,12.037037
2023-05-14T18:40:18.670Z,11.821759
2023-05-14T18:45:16.334Z,11.560185
2023-05-14T18:50:16.613Z,11.368056
2023-05-14T18:55:16.363Z,11.298611
2023-05-14T19:00:16.327Z,11.175926
2023-05-14T19:05:16.280Z,11.085648
2023-05-14T19:10:16.738Z,11.055556
2023-05-14T19:15:16.335Z,10.847222
2023-05-14T19:20:16.325Z,10.905093
2023-05-14T19:25:17.102Z,10.995370
2023-05-14T19:30:16.656Z,10.907407
2023-05-14T19:40:16.472Z,10.907407
2023-05-14T19:45:16.526Z,10.743056
2023-05-14T19:50:16.347Z,10.555556
2023-05-14T19:55:16.809Z,10.576389
2023-05-14T20:00:16.689Z,10.634259
2023-05-14T20:05:16.519Z,10.495370
2023-05-14T20:10:16.561Z,10.157407
2023-05-14T20:15:16.550Z,9.900000
2023-05-14T20:20:16.766Z,9.550926
2023-05-14T20:25:16.937Z,9.534722
2023-05-14T20:30:16.745Z,9.354167
2023-05-14T20:35:16.445Z,9.093333
2023-05-14T20:40:17.052Z,8.907407
2023-05-14T20:45:16.609Z,9.060185
2023-05-14T20:50:16.371Z,9.268519
2023-05-14T20:55:16.713Z,9.430556
2023-05-14T21:00:16.395Z,9.168981
2023-05-14T21:05:16.321Z,9.175926
2023-05-14T21:10:16.632Z,9.324074
2023-05-14T21:15:16.651Z,9.280093
2023-05-14T21:20:16.455Z,8.863426
2023-05-14T21:25:16.410Z,8.817130
2023-05-14T21:30:16.300Z,8.858796
2023-05-14T21:35:16.493Z,8.893519
2023-05-14T21:40:16.395Z,8.861111
2023-05-14T21:45:16.474Z,8.847222
2023-05-14T21:50:16.400Z,8.884259
2023-05-14T21:55:16.306Z,8.986111
2023-05-14T22:00:16.624Z,8.858796
2023-05-14T22:05:16.297Z,8.935185
2023-05-14T22:10:16.304Z,9.201389
2023-05-14T22:15:16.422Z,9.261574
2023-05-14T22:20:16.336Z,9.122685
2023-05-14T22:25:17.018Z,8.791667
2023-05-14T22:30:16.535Z,8.858796
2023-05-14T22:35:16.634Z,8.791667
2023-05-14T22:40:16.504Z,8.798611
2023-05-14T22:45:16.366Z,8.502315
2023-05-14T22:50:16.425Z,8.416667
2023-05-14T22:55:16.296Z,8.333333
2023-05-14T23:00:16.490Z,8.347222
2023-05-14T23:05:16.248Z,8.131944
2023-05-14T23:10:16.256Z,7.789352
2023-05-14T23:15:16.269Z,7.810185
2023-05-14T23:20:16.446Z,7.581019
2023-05-14T23:25:16.760Z,7.660000
2023-05-14T23:30:16.309Z,7.972222
2023-05-14T23:35:16.291Z,7.537037
2023-05-14T23:40:16.658Z,7.425926
2023-05-14T23:45:16.230Z,7.067130
2023-05-14T23:50:16.212Z,7.106481
2023-05-14T23:55:16.317Z,7.055556
